Time;durP1;ratioP1;P1;durP2;ratioP2;P2;SDS_P1;SDS_P2;PMS_P1;PMS_P2;Temp;Humidity;BMP_temperature;BMP_pressure;BME280_temperature;BME280_humidity;BME280_pressure;Samples;Min_cycle;Max_cycle;Signal;HPM_P1;HPM_P2
2021/12/03 00:01:54;;;;;;;9.82;3.25;;;5.50;99.90;;;;;;5056604;28;20036;-73
2021/12/03 00:04:20;;;;;;;6.30;3.30;;;5.50;99.90;;;;;;5056633;28;20033;-74
2021/12/03 00:06:46;;;;;;;8.25;4.72;;;5.50;99.90;;;;;;5056619;28;20021;-73
2021/12/03 00:09:11;;;;;;;7.60;4.28;;;5.60;99.90;;;;;;5056552;28;20060;-74
2021/12/03 00:11:37;;;;;;;9.45;4.50;;;5.50;99.90;;;;;;5056267;28;20017;-73
2021/12/03 00:14:03;;;;;;;11.20;5.45;;;5.50;99.90;;;;;;5056174;28;20065;-73
2021/12/03 00:16:28;;;;;;;7.97;4.65;;;5.60;99.90;;;;;;5056115;28;20469;-74
2021/12/03 00:18:54;;;;;;;11.50;4.72;;;5.50;99.90;;;;;;5055870;28;20095;-74
2021/12/03 00:21:22;;;;;;;7.45;3.85;;;5.60;99.90;;;;;;5056013;28;20049;-74
2021/12/03 00:23:47;;;;;;;6.72;3.45;;;5.50;99.90;;;;;;5055570;28;20040;-73
2021/12/03 00:26:13;;;;;;;9.00;3.50;;;5.50;99.90;;;;;;5056445;28;20021;-73
2021/12/03 00:28:39;;;;;;;13.10;4.57;;;5.50;99.90;;;;;;5055916;28;20491;-74
2021/12/03 00:31:06;;;;;;;8.68;4.70;;;5.50;99.90;;;;;;5055917;28;20512;-75
2021/12/03 00:33:32;;;;;;;9.50;4.38;;;5.50;99.90;;;;;;5056090;28;20136;-74
2021/12/03 00:36:04;;;;;;;7.25;4.05;;;5.40;99.90;;;;;;5055746;28;20025;-73
2021/12/03 00:38:35;;;;;;;8.10;4.15;;;5.40;99.90;;;;;;5055770;28;20040;-75
2021/12/03 00:41:06;;;;;;;6.72;4.22;;;5.40;99.90;;;;;;5055972;28;20031;-74
2021/12/03 00:43:32;;;;;;;6.95;3.45;;;5.40;99.90;;;;;;5055741;28;20024;-73
2021/12/03 00:46:04;;;;;;;5.55;3.20;;;5.40;99.90;;;;;;5055611;28;20096;-74
2021/12/03 00:48:30;;;;;;;7.40;3.58;;;5.40;99.90;;;;;;5056109;28;20351;-74
2021/12/03 00:50:56;;;;;;;9.10;3.80;;;5.20;99.90;;;;;;5055763;28;20028;-74
2021/12/03 00:53:21;;;;;;;7.53;3.33;;;5.30;99.90;;;;;;5055438;28;20052;-74
2021/12/03 00:55:47;;;;;;;6.00;2.95;;;5.30;99.90;;;;;;5055688;28;20029;-73
2021/12/03 00:58:13;;;;;;;8.85;3.00;;;5.30;99.90;;;;;;5055365;28;20028;-74
2021/12/03 01:00:38;;;;;;;8.23;2.80;;;5.30;99.90;;;;;;5055574;28;20425;-74
2021/12/03 01:03:04;;;;;;;7.40;3.30;;;5.30;99.90;;;;;;5055423;28;20103;-74
2021/12/03 01:05:31;;;;;;;7.65;3.15;;;5.40;99.90;;;;;;5037330;28;20028;-73
2021/12/03 01:07:57;;;;;;;8.38;3.80;;;5.40;99.90;;;;;;5055140;28;20012;-73
2021/12/03 01:10:23;;;;;;;17.83;7.35;;;5.40;99.90;;;;;;5055137;28;20138;-73
2021/12/03 01:12:49;;;;;;;14.20;5.72;;;5.40;99.90;;;;;;5055112;28;20029;-73
2021/12/03 01:15:22;;;;;;;6.75;3.10;;;5.40;99.90;;;;;;5055676;28;20124;-73
2021/12/03 01:17:48;;;;;;;6.82;2.85;;;5.40;99.90;;;;;;5055159;28;20050;-73
2021/12/03 01:20:15;;;;;;;7.28;3.63;;;5.40;99.90;;;;;;5055254;28;20029;-75
2021/12/03 01:22:43;;;;;;;8.43;4.03;;;5.40;99.90;;;;;;5054839;28;20029;-73
2021/12/03 01:25:11;;;;;;;7.28;3.85;;;5.30;99.90;;;;;;5055172;28;20021;-74
2021/12/03 01:27:37;;;;;;;5.78;3.15;;;5.30;99.90;;;;;;5055326;28;20052;-75
2021/12/03 01:30:07;;;;;;;9.85;4.43;;;5.30;99.90;;;;;;5054789;28;20103;-73
2021/12/03 01:32:33;;;;;;;8.20;3.30;;;5.30;99.90;;;;;;5054555;28;20480;-74
2021/12/03 01:34:58;;;;;;;5.57;3.05;;;5.30;99.90;;;;;;5054650;28;20108;-73
2021/12/03 01:37:24;;;;;;;6.57;3.05;;;5.30;99.90;;;;;;5053788;28;20032;-74
2021/12/03 01:39:50;;;;;;;11.18;3.53;;;5.40;99.90;;;;;;5054855;28;20029;-74
2021/12/03 01:42:16;;;;;;;6.57;3.20;;;5.30;99.90;;;;;;5054366;28;20588;-74
2021/12/03 01:44:41;;;;;;;6.65;2.95;;;5.40;99.90;;;;;;5036542;28;20035;-74
2021/12/03 01:47:07;;;;;;;8.07;3.53;;;5.40;99.90;;;;;;5054455;28;20029;-73
2021/12/03 01:49:33;;;;;;;6.75;3.08;;;5.40;99.90;;;;;;5054399;28;20043;-73
2021/12/03 01:51:59;;;;;;;7.53;3.63;;;5.40;99.90;;;;;;5054346;28;20055;-74
2021/12/03 01:54:25;;;;;;;9.00;3.20;;;5.40;99.90;;;;;;5054325;28;20025;-73
2021/12/03 01:56:51;;;;;;;7.72;3.67;;;5.50;99.90;;;;;;5054231;28;20054;-75
2021/12/03 01:59:16;;;;;;;6.75;3.58;;;5.50;99.90;;;;;;5054251;28;20454;-73
2021/12/03 02:01:43;;;;;;;10.43;3.67;;;5.60;99.90;;;;;;5054346;28;20040;-75
2021/12/03 02:04:08;;;;;;;7.40;3.92;;;5.70;99.90;;;;;;5054109;28;20397;-74
2021/12/03 02:06:38;;;;;;;8.07;3.65;;;5.70;99.90;;;;;;5053992;28;20035;-74
2021/12/03 02:09:05;;;;;;;7.07;3.20;;;5.60;99.90;;;;;;5054050;28;20102;-73
2021/12/03 02:11:31;;;;;;;9.15;3.70;;;5.70;99.90;;;;;;5054274;28;20428;-74
2021/12/03 02:13:57;;;;;;;6.43;3.42;;;5.70;99.90;;;;;;5053923;28;20024;-73
2021/12/03 02:16:24;;;;;;;9.82;4.00;;;5.70;99.90;;;;;;5053912;28;20021;-73
2021/12/03 02:18:50;;;;;;;8.48;3.13;;;5.70;99.90;;;;;;5053503;28;20052;-73
2021/12/03 02:21:17;;;;;;;8.68;3.60;;;5.70;99.90;;;;;;5054063;28;20104;-73
2021/12/03 02:23:42;;;;;;;6.50;2.83;;;5.80;99.90;;;;;;5053694;28;20070;-73
2021/12/03 02:26:10;;;;;;;6.55;3.20;;;5.80;99.90;;;;;;5053929;28;20075;-73
2021/12/03 02:28:41;;;;;;;5.53;3.25;;;5.90;99.90;;;;;;5053685;28;20468;-73
2021/12/03 02:31:06;;;;;;;;;;;5.90;99.90;;;;;;5054378;28;20016;-74
2021/12/03 02:33:33;;;;;;;10.65;3.47;;;5.90;99.90;;;;;;5053621;28;20335;-73
2021/12/03 02:35:59;;;;;;;9.80;4.25;;;5.90;99.90;;;;;;5053803;28;20430;-73
2021/12/03 02:38:26;;;;;;;9.82;4.63;;;5.90;99.90;;;;;;5053756;28;20116;-73
2021/12/03 02:40:53;;;;;;;9.30;5.03;;;6.00;99.90;;;;;;5053792;28;20048;-73
2021/12/03 02:43:20;;;;;;;12.07;5.03;;;6.00;99.90;;;;;;5053502;28;20409;-74
2021/12/03 02:45:45;;;;;;;7.90;4.13;;;6.00;99.90;;;;;;5053389;28;20017;-73
2021/12/03 02:48:11;;;;;;;9.90;3.88;;;6.00;99.90;;;;;;5053230;28;20025;-74
2021/12/03 02:50:37;;;;;;;6.05;3.20;;;6.00;99.90;;;;;;5053617;28;20021;-74
2021/12/03 02:53:04;;;;;;;7.13;2.88;;;6.00;99.90;;;;;;5053272;28;20099;-73
2021/12/03 02:55:30;;;;;;;8.13;3.63;;;6.00;99.90;;;;;;5053538;28;20060;-74
2021/12/03 02:57:56;;;;;;;6.38;2.70;;;6.00;99.90;;;;;;5053509;28;20036;-74
2021/12/03 03:00:25;;;;;;;13.02;3.33;;;5.90;99.90;;;;;;5053167;28;20021;-74
2021/12/03 03:02:51;;;;;;;7.80;3.63;;;6.00;99.90;;;;;;5053126;28;20148;-73
2021/12/03 03:05:19;;;;;;;7.53;3.25;;;5.90;99.90;;;;;;5053170;28;20461;-74
2021/12/03 03:07:46;;;;;;;5.95;2.58;;;6.00;99.90;;;;;;5053184;28;20052;-75
2021/12/03 03:10:14;;;;;;;5.63;2.88;;;6.00;99.90;;;;;;5053189;28;20106;-74
2021/12/03 03:12:41;;;;;;;5.18;2.45;;;6.00;99.90;;;;;;5053629;28;20388;-75
2021/12/03 03:15:09;;;;;;;6.88;2.75;;;6.10;99.90;;;;;;5053059;28;20029;-73
2021/12/03 03:17:35;;;;;;;6.25;2.72;;;6.10;99.90;;;;;;5052935;28;20025;-73
2021/12/03 03:20:04;;;;;;;6.22;2.75;;;6.10;99.90;;;;;;5053027;28;20537;-73
2021/12/03 03:22:30;;;;;;;5.43;2.55;;;6.10;99.90;;;;;;5052873;28;20029;-74
2021/12/03 03:24:59;;;;;;;5.82;2.85;;;6.20;99.90;;;;;;5035108;28;20025;-74
2021/12/03 03:27:27;;;;;;;4.55;2.08;;;6.20;99.90;;;;;;5053065;28;20477;-73
2021/12/03 03:29:54;;;;;;;3.47;2.03;;;6.20;99.90;;;;;;5053183;28;20381;-73
2021/12/03 03:32:20;;;;;;;7.28;2.10;;;6.20;99.90;;;;;;5052949;28;20104;-74
2021/12/03 03:34:46;;;;;;;4.05;2.15;;;6.20;99.90;;;;;;5052904;28;20025;-73
2021/12/03 03:37:12;;;;;;;8.05;2.10;;;6.30;99.90;;;;;;5053131;28;20031;-73
2021/12/03 03:39:38;;;;;;;6.07;2.33;;;6.20;99.90;;;;;;5052848;28;20488;-74
2021/12/03 03:42:05;;;;;;;4.70;1.70;;;6.20;99.90;;;;;;5052696;28;20017;-74
2021/12/03 03:44:31;;;;;;;5.82;1.80;;;6.30;99.90;;;;;;5052773;28;20048;-74
2021/12/03 03:46:57;;;;;;;2.85;1.48;;;6.30;99.90;;;;;;5052745;28;20029;-75
2021/12/03 03:49:24;;;;;;;5.15;1.48;;;6.30;99.90;;;;;;5052758;28;20401;-73
2021/12/03 03:51:51;;;;;;;7.90;2.10;;;6.30;99.90;;;;;;5052692;28;20017;-73
2021/12/03 03:54:17;;;;;;;8.40;2.22;;;6.40;99.90;;;;;;5052707;28;20025;-74
2021/12/03 03:56:44;;;;;;;3.13;1.63;;;6.40;99.90;;;;;;5052580;28;20025;-74
2021/12/03 03:59:10;;;;;;;5.03;1.73;;;6.40;99.90;;;;;;5053144;28;20052;-74
2021/12/03 04:01:36;;;;;;;5.13;1.67;;;6.40;99.90;;;;;;5056486;28;20099;-75
2021/12/03 04:04:02;;;;;;;5.55;1.60;;;6.40;99.90;;;;;;5056343;28;20570;-74
2021/12/03 04:06:28;;;;;;;4.78;1.67;;;6.40;99.90;;;;;;5056335;28;20021;-75
2021/12/03 04:08:54;;;;;;;3.80;1.77;;;6.50;99.90;;;;;;5056322;28;20394;-73
2021/12/03 04:11:23;;;;;;;6.00;1.85;;;6.50;99.90;;;;;;5056301;28;20034;-74
2021/12/03 04:13:49;;;;;;;4.00;2.08;;;6.50;99.90;;;;;;5056280;28;20047;-74
2021/12/03 04:16:16;;;;;;;5.43;1.83;;;6.50;99.90;;;;;;5056462;28;20029;-73
2021/12/03 04:18:42;;;;;;;4.05;1.85;;;6.50;99.90;;;;;;5056079;28;20072;-73
2021/12/03 04:21:08;;;;;;;5.13;1.42;;;6.50;99.90;;;;;;5056088;28;20017;-75
2021/12/03 04:23:33;;;;;;;3.97;1.80;;;6.50;99.90;;;;;;5056498;28;20036;-73
2021/12/03 04:25:59;;;;;;;7.13;1.85;;;6.50;99.90;;;;;;5056265;28;20029;-73
2021/12/03 04:28:25;;;;;;;3.58;1.70;;;6.60;99.90;;;;;;5055990;28;20020;-74
2021/12/03 04:30:51;;;;;;;4.95;2.17;;;6.60;99.90;;;;;;5055945;28;20072;-73
2021/12/03 04:33:17;;;;;;;6.30;2.20;;;6.60;99.90;;;;;;5055874;28;20052;-73
2021/12/03 04:35:43;;;;;;;8.27;2.15;;;6.60;99.90;;;;;;5055787;28;20036;-73
2021/12/03 04:38:09;;;;;;;4.07;2.08;;;6.60;99.90;;;;;;5056001;28;20040;-73
2021/12/03 04:40:37;;;;;;;5.28;2.20;;;6.50;99.90;;;;;;5056219;28;20029;-73
2021/12/03 04:43:04;;;;;;;4.82;2.53;;;6.50;99.90;;;;;;5055211;28;20028;-73
2021/12/03 04:45:30;;;;;;;4.93;2.00;;;6.50;99.90;;;;;;5055895;28;20029;-74
2021/12/03 04:47:58;;;;;;;5.40;2.45;;;6.50;99.90;;;;;;5056190;28;20029;-74
2021/12/03 04:50:28;;;;;;;5.13;2.10;;;6.50;99.90;;;;;;5055531;28;20021;-73
2021/12/03 04:52:54;;;;;;;4.15;2.60;;;6.40;99.90;;;;;;5055459;28;20086;-73
2021/12/03 04:55:21;;;;;;;6.15;2.65;;;6.40;99.90;;;;;;5055422;28;20467;-73
2021/12/03 04:57:50;;;;;;;6.43;2.33;;;6.40;99.90;;;;;;5055394;28;20024;-75
2021/12/03 05:00:20;;;;;;;5.68;2.40;;;6.30;99.90;;;;;;5055936;28;20021;-74
2021/12/03 05:02:46;;;;;;;7.47;2.80;;;6.30;99.90;;;;;;5055274;28;20064;-73
2021/12/03 05:05:13;;;;;;;5.88;2.60;;;6.30;99.90;;;;;;5055253;28;20064;-74
2021/12/03 05:10:10;;;;;;;14.55;9.02;;;6.40;99.90;;;;;;5054849;28;20020;-75
2021/12/03 05:12:36;;;;;;;7.05;3.78;;;6.30;99.90;;;;;;5054821;28;20040;-73
2021/12/03 05:15:03;;;;;;;7.13;3.13;;;6.40;99.90;;;;;;5055083;28;20366;-74
2021/12/03 05:17:29;;;;;;;6.55;3.10;;;6.30;99.90;;;;;;5054973;28;20489;-74
2021/12/03 05:19:55;;;;;;;6.32;3.80;;;6.30;99.90;;;;;;5054846;28;20049;-75
2021/12/03 05:22:21;;;;;;;6.82;3.28;;;6.30;99.90;;;;;;5055383;28;20028;-73
2021/12/03 05:24:47;;;;;;;6.00;3.55;;;6.30;99.90;;;;;;5054920;28;20029;-75
2021/12/03 05:27:20;;;;;;;10.25;3.38;;;6.30;99.90;;;;;;5054879;28;20025;-73
2021/12/03 05:29:48;;;;;;;7.18;3.10;;;6.30;99.90;;;;;;5055147;28;20021;-74
2021/12/03 05:32:16;;;;;;;6.30;3.85;;;6.30;99.90;;;;;;5054737;28;20025;-75
2021/12/03 05:34:41;;;;;;;6.70;3.20;;;6.20;99.90;;;;;;5054712;28;20027;-74
2021/12/03 05:37:08;;;;;;;8.10;3.25;;;6.30;99.90;;;;;;5054953;28;20052;-74
2021/12/03 05:39:35;;;;;;;7.10;3.40;;;6.20;99.90;;;;;;5054889;28;20507;-73
2021/12/03 05:42:01;;;;;;;11.52;4.07;;;6.20;99.90;;;;;;5054637;28;20496;-74
2021/12/03 05:44:29;;;;;;;9.98;6.15;;;6.20;99.90;;;;;;5054481;28;20013;-74
2021/12/03 05:46:56;;;;;;;12.40;6.88;;;6.20;99.90;;;;;;5054523;28;20029;-73
2021/12/03 05:49:21;;;;;;;15.25;9.00;;;6.30;99.90;;;;;;5054452;28;20021;-73
2021/12/03 05:51:47;;;;;;;8.02;4.72;;;6.30;99.90;;;;;;5054671;28;20112;-74
2021/12/03 05:54:13;;;;;;;9.23;4.47;;;6.40;99.90;;;;;;5054353;28;20021;-74
2021/12/03 05:56:38;;;;;;;10.93;5.95;;;6.30;99.90;;;;;;5054282;28;20025;-73
2021/12/03 05:59:04;;;;;;;6.63;3.85;;;6.40;99.90;;;;;;5054225;28;20053;-74
2021/12/03 06:01:30;;;;;;;7.45;4.07;;;6.40;99.90;;;;;;5054200;28;20531;-73
2021/12/03 06:03:56;;;;;;;7.82;3.67;;;6.40;99.90;;;;;;5054080;28;20469;-74
2021/12/03 06:06:22;;;;;;;7.32;3.47;;;6.40;99.90;;;;;;5054097;28;20029;-73
2021/12/03 06:08:48;;;;;;;8.70;4.45;;;6.40;99.90;;;;;;5054058;28;20017;-74
2021/12/03 06:11:14;;;;;;;8.45;3.60;;;6.40;99.90;;;;;;5053989;28;20533;-73
2021/12/03 06:13:39;;;;;;;9.10;3.90;;;6.40;99.90;;;;;;5053920;28;20064;-73
2021/12/03 06:16:10;;;;;;;15.30;10.45;;;6.40;99.90;;;;;;5054192;28;20052;-74
2021/12/03 06:18:36;;;;;;;;;;;6.40;99.90;;;;;;5054313;28;20084;-74
2021/12/03 06:21:03;;;;;;;11.57;7.97;;;6.40;99.90;;;;;;5054096;28;20329;-73
2021/12/03 06:23:29;;;;;;;9.98;6.60;;;6.40;99.90;;;;;;5053322;28;20056;-74
2021/12/03 06:25:55;;;;;;;7.88;4.43;;;6.40;99.90;;;;;;5053708;28;20017;-74
2021/12/03 06:28:21;;;;;;;7.85;4.78;;;6.40;99.90;;;;;;5053662;28;20027;-74
2021/12/03 06:30:47;;;;;;;8.40;5.03;;;6.40;99.90;;;;;;5036046;28;20025;-74
2021/12/03 06:33:13;;;;;;;10.18;5.80;;;6.40;99.90;;;;;;5053626;28;20029;-74
2021/12/03 06:35:38;;;;;;;7.95;4.50;;;6.40;99.90;;;;;;5053605;28;20078;-74
2021/12/03 06:38:04;;;;;;;8.15;4.18;;;6.40;99.90;;;;;;5053545;28;20512;-73
2021/12/03 06:40:30;;;;;;;9.40;5.35;;;6.40;99.90;;;;;;5053541;28;20036;-74
2021/12/03 06:42:56;;;;;;;12.45;5.28;;;6.50;99.90;;;;;;5053296;28;20420;-75
2021/12/03 06:45:22;;;;;;;8.98;5.15;;;6.50;99.90;;;;;;5053936;28;20022;-73
2021/12/03 06:47:48;;;;;;;9.50;5.68;;;6.50;99.90;;;;;;5053628;28;20021;-73
2021/12/03 06:50:18;;;;;;;11.75;6.40;;;6.50;99.90;;;;;;5053624;28;20358;-74
2021/12/03 06:52:47;;;;;;;8.30;4.70;;;6.50;99.90;;;;;;5053631;28;20124;-74
2021/12/03 06:55:14;;;;;;;9.45;4.60;;;6.50;99.90;;;;;;5053667;28;20025;-73
2021/12/03 06:57:44;;;;;;;8.00;4.43;;;6.50;99.90;;;;;;5053259;28;20033;-73
2021/12/03 07:00:14;;;;;;;7.72;4.72;;;6.50;99.90;;;;;;5053828;28;20090;-74
2021/12/03 07:02:40;;;;;;;9.50;4.55;;;6.40;99.90;;;;;;5053424;28;20029;-74
2021/12/03 07:05:08;;;;;;;8.75;4.75;;;6.40;99.90;;;;;;5035374;28;20079;-73
2021/12/03 07:07:34;;;;;;;8.18;4.40;;;6.40;99.90;;;;;;5053414;28;20053;-73
2021/12/03 07:10:01;;;;;;;8.95;5.60;;;6.40;99.90;;;;;;5053118;28;20081;-74
2021/12/03 07:12:27;;;;;;;7.45;4.68;;;6.50;99.90;;;;;;5035205;28;20389;-75
2021/12/03 07:14:53;;;;;;;8.07;4.55;;;6.50;99.90;;;;;;5053068;28;20536;-73
2021/12/03 07:17:19;;;;;;;9.40;6.15;;;6.50;99.90;;;;;;5053045;28;20052;-73
2021/12/03 07:19:45;;;;;;;8.20;4.65;;;6.50;99.90;;;;;;5052668;28;20114;-74
2021/12/03 07:22:10;;;;;;;9.32;4.63;;;6.50;99.90;;;;;;5052988;28;20459;-73
2021/12/03 07:24:36;;;;;;;8.55;4.90;;;6.50;99.90;;;;;;5053260;28;20017;-73
2021/12/03 07:27:02;;;;;;;8.85;5.40;;;6.50;99.90;;;;;;5053002;28;20028;-74
2021/12/03 07:29:28;;;;;;;9.23;4.85;;;6.50;99.90;;;;;;5053019;28;20021;-74
2021/12/03 07:31:54;;;;;;;9.93;6.03;;;6.60;99.90;;;;;;5052951;28;20013;-74
2021/12/03 07:34:20;;;;;;;12.02;5.03;;;6.60;99.90;;;;;;5054291;28;20028;-74
2021/12/03 07:36:46;;;;;;;8.32;4.88;;;6.60;99.90;;;;;;5056975;28;20024;-74
2021/12/03 07:39:12;;;;;;;9.95;5.90;;;6.60;99.90;;;;;;5057194;28;20017;-73
2021/12/03 07:41:40;;;;;;;7.70;4.88;;;6.60;99.90;;;;;;5057129;28;20021;-73
2021/12/03 07:44:07;;;;;;;7.95;5.38;;;6.60;99.90;;;;;;5056662;28;20032;-73
2021/12/03 07:46:36;;;;;;;9.05;5.30;;;6.70;99.90;;;;;;5056795;28;20052;-73
2021/12/03 07:49:03;;;;;;;8.38;5.70;;;6.70;99.90;;;;;;5056691;28;20032;-73
2021/12/03 07:51:29;;;;;;;10.20;5.40;;;6.70;99.90;;;;;;5056660;28;20017;-74
2021/12/03 07:53:54;;;;;;;8.45;4.80;;;6.80;99.90;;;;;;5056596;28;20548;-74
2021/12/03 07:56:20;;;;;;;8.02;4.40;;;6.80;99.90;;;;;;5056845;28;20052;-73
2021/12/03 07:58:46;;;;;;;7.72;5.07;;;6.80;99.90;;;;;;5056841;28;20020;-74
2021/12/03 08:01:11;;;;;;;7.53;4.88;;;6.80;99.90;;;;;;5056486;28;20029;-73
2021/12/03 08:03:37;;;;;;;6.95;4.55;;;6.80;99.90;;;;;;5056345;28;20040;-73
2021/12/03 08:06:09;;;;;;;6.47;4.70;;;6.90;99.90;;;;;;5056372;28;20013;-73
2021/12/03 08:08:39;;;;;;;6.75;3.72;;;6.90;99.90;;;;;;5056041;28;20020;-74
2021/12/03 08:11:05;;;;;;;6.50;4.03;;;7.00;99.90;;;;;;5056299;28;20100;-75
2021/12/03 08:13:31;;;;;;;7.70;5.53;;;7.00;99.90;;;;;;5055938;28;20037;-73
2021/12/03 08:15:57;;;;;;;11.80;8.52;;;7.10;99.90;;;;;;5055472;28;20079;-74
2021/12/03 08:18:22;;;;;;;11.63;7.95;;;7.10;99.90;;;;;;5055921;28;20398;-73
2021/12/03 08:20:48;;;;;;;13.02;7.72;;;7.20;99.90;;;;;;5055792;28;20021;-73
2021/12/03 08:23:14;;;;;;;13.13;6.93;;;7.20;99.90;;;;;;5054396;28;20090;-73
2021/12/03 08:25:39;;;;;;;12.45;6.43;;;7.30;99.90;;;;;;5054385;28;20044;-74
2021/12/03 08:28:05;;;;;;;22.83;13.15;;;7.30;99.90;;;;;;5055703;28;20031;-74
2021/12/03 08:30:31;;;;;;;10.98;5.53;;;7.30;99.90;;;;;;5055770;28;20542;-73
2021/12/03 08:32:58;;;;;;;13.60;6.53;;;7.40;99.90;;;;;;5055633;28;20025;-73
2021/12/03 08:35:23;;;;;;;18.17;10.02;;;7.50;99.90;;;;;;5055637;28;20021;-74
2021/12/03 08:37:50;;;;;;;13.20;7.53;;;7.50;99.90;;;;;;5056032;28;20032;-75
2021/12/03 08:40:17;;;;;;;14.60;7.07;;;7.60;99.90;;;;;;5055716;28;20037;-74
2021/12/03 08:42:43;;;;;;;11.55;6.50;;;7.60;99.90;;;;;;5055568;28;20075;-75
2021/12/03 08:45:09;;;;;;;10.65;6.25;;;7.60;99.90;;;;;;5055369;28;20059;-73
2021/12/03 08:47:37;;;;;;;12.15;8.82;;;7.70;99.90;;;;;;5056227;28;20017;-74
2021/12/03 08:50:08;;;;;;;6.05;4.10;;;7.70;99.90;;;;;;5055603;28;20028;-75
2021/12/03 08:54:47;;;;;;;6.97;4.60;;;7.80;99.90;;;;;;5037435;28;20104;-73
2021/12/03 08:55:22;;;;;;;7.70;4.68;;;7.80;99.90;;;;;;5046880;28;20493;-74
2021/12/03 08:57:48;;;;;;;6.15;3.65;;;7.90;99.90;;;;;;5055452;28;20108;-73
2021/12/03 09:00:17;;;;;;;9.57;5.95;;;7.90;99.90;;;;;;5055637;28;20025;-73
2021/12/03 09:02:43;;;;;;;5.85;3.42;;;8.00;99.90;;;;;;5037443;28;20075;-75
2021/12/03 09:05:09;;;;;;;5.55;3.72;;;8.00;99.90;;;;;;5055606;28;20021;-74
2021/12/03 09:07:36;;;;;;;6.13;3.70;;;8.10;99.90;;;;;;5055279;28;20092;-74
2021/12/03 09:10:04;;;;;;;8.23;4.88;;;8.10;99.90;;;;;;5055182;28;20025;-74
2021/12/03 09:12:30;;;;;;;6.72;3.92;;;8.10;99.90;;;;;;5055128;28;20040;-77
2021/12/03 09:14:59;;;;;;;7.95;3.95;;;8.20;99.90;;;;;;5055130;28;20096;-75
2021/12/03 09:25:00;;;;;;;6.90;4.13;;;8.30;99.90;;;;;;5054922;28;20029;-76
2021/12/03 09:27:27;;;;;;;6.18;3.65;;;8.40;99.90;;;;;;5054898;28;20092;-75
2021/12/03 09:29:55;;;;;;;6.28;3.33;;;8.40;99.90;;;;;;5054824;28;20017;-74
2021/12/03 09:32:25;;;;;;;6.05;3.80;;;8.50;99.90;;;;;;5054778;28;20055;-74
2021/12/03 09:34:51;;;;;;;4.85;3.15;;;8.50;99.90;;;;;;5055076;28;20099;-72
2021/12/03 09:37:17;;;;;;;4.05;2.70;;;8.60;99.90;;;;;;5054695;28;20037;-73
2021/12/03 09:39:45;;;;;;;5.07;2.63;;;8.60;99.90;;;;;;5054669;28;20055;-72
2021/12/03 09:42:11;;;;;;;4.03;2.63;;;8.70;99.90;;;;;;5054479;28;20492;-72
2021/12/03 09:44:43;;;;;;;4.35;3.28;;;8.70;99.90;;;;;;5054515;28;20025;-72
2021/12/03 09:47:08;;;;;;;4.35;2.65;;;8.70;99.90;;;;;;5054466;28;20053;-72
2021/12/03 09:49:38;;;;;;;3.88;2.72;;;8.80;99.90;;;;;;5054444;28;20021;-73
2021/12/03 09:54:51;;;;;;;4.40;2.30;;;8.90;99.90;;;;;;5054020;28;20021;-73
2021/12/03 09:58:11;;;;;;;2.95;2.22;;;9.00;99.90;;;;;;5053917;28;20032;-73
2021/12/03 10:14:33;;;;;;;3.03;2.35;;;9.40;99.90;;;;;;5053742;28;20413;-72
2021/12/03 10:20:03;;;;;;;4.07;2.90;;;9.50;99.90;;;;;;5053756;28;20055;-73
2021/12/03 10:33:14;;;;;;;10.15;7.88;;;9.70;99.90;;;;;;5053385;28;20103;-73
2021/12/03 10:36:06;;;;;;;7.32;5.60;;;9.80;99.90;;;;;;5053670;28;20116;-73
2021/12/03 10:46:50;;;;;;;4.32;3.55;;;9.90;99.90;;;;;;5053176;28;20031;-73
2021/12/03 10:52:37;;;;;;;7.25;4.95;;;10.10;99.90;;;;;;5053929;28;20119;-73
2021/12/03 10:57:35;;;;;;;7.70;5.53;;;10.20;99.90;;;;;;5053559;28;20035;-73
2021/12/03 11:34:37;;;;;;;10.55;7.32;;;10.60;99.90;;;;;;5053457;28;20059;-73
2021/12/03 11:37:20;;;;;;;12.05;8.70;;;10.80;99.90;;;;;;5052249;28;20090;-73
2021/12/03 12:00:49;;;;;;;5.88;2.78;;;11.40;99.90;;;;;;5052988;28;20035;-73
2021/12/03 12:18:02;;;;;;;3.63;1.75;;;11.60;99.90;;;;;;5053163;28;20078;-73
2021/12/03 12:20:17;;;;;;;7.78;5.03;;;11.70;99.90;;;;;;5052118;28;20045;-72
2021/12/03 12:44:34;;;;;;;3.20;2.38;;;12.10;99.90;;;;;;5055528;28;20039;-73
2021/12/03 14:52:21;;;;;;;1.33;1.23;;;12.60;99.90;;;;;;5033527;28;20026;-73
2021/12/03 14:54:50;;;;;;;2.67;1.60;;;12.60;99.90;;;;;;5033492;28;20025;-73
2021/12/03 15:00:04;;;;;;;5.60;3.00;;;12.60;99.90;;;;;;5033418;28;20287;-74
2021/12/03 15:02:41;;;;;;;4.07;1.80;;;12.60;99.90;;;;;;5015344;28;20437;-73
2021/12/03 15:07:43;;;;;;;3.20;1.98;;;12.60;99.90;;;;;;5033585;28;20028;-73
2021/12/03 15:10:16;;;;;;;3.50;1.83;;;12.50;99.90;;;;;;5033831;28;20109;-73
2021/12/03 15:20:52;;;;;;;4.22;1.95;;;12.50;99.90;;;;;;5033486;28;20060;-73
2021/12/03 15:26:19;;;;;;;;;;;12.50;99.90;;;;;;5034139;28;20553;-74
2021/12/03 15:31:26;;;;;;;2.35;1.40;;;12.50;99.90;;;;;;5033598;28;20029;-73
2021/12/03 16:03:42;;;;;;;6.80;2.88;;;12.40;99.90;;;;;;5036956;28;20033;-73
2021/12/03 16:08:52;;;;;;;4.35;2.80;;;12.40;99.90;;;;;;5036252;28;20095;-73
2021/12/03 16:17:16;;;;;;;9.98;5.15;;;12.40;99.90;;;;;;5013253;28;20077;-73
2021/12/03 16:24:57;;;;;;;13.13;6.13;;;12.40;99.90;;;;;;5037038;28;20520;-73
2021/12/03 16:51:53;;;;;;;9.80;5.13;;;12.40;99.90;;;;;;5036003;28;20083;-73
2021/12/03 16:54:27;;;;;;;5.55;2.70;;;12.40;99.90;;;;;;5035965;28;20025;-73
2021/12/03 16:56:53;;;;;;;16.17;9.45;;;12.40;99.90;;;;;;5017586;28;20029;-73
2021/12/03 16:59:20;;;;;;;6.63;2.97;;;12.40;99.90;;;;;;5035635;28;20038;-73
2021/12/03 17:02:01;;;;;;;10.60;6.10;;;12.40;99.90;;;;;;5035502;28;20033;-73
2021/12/03 17:22:05;;;;;;;10.90;6.07;;;12.40;99.90;;;;;;5035413;28;20064;-73
2021/12/03 18:01:06;;;;;;;13.38;3.28;;;12.50;99.90;;;;;;5034335;28;20052;-73
2021/12/03 18:44:16;;;;;;;6.82;2.55;;;12.50;99.90;;;;;;5033822;28;20031;-73
2021/12/03 18:57:06;;;;;;;8.77;2.05;;;12.60;99.90;;;;;;5033489;28;20030;-73
2021/12/03 18:59:36;;;;;;;9.30;2.38;;;12.60;99.90;;;;;;5033991;28;20045;-72
2021/12/03 19:02:06;;;;;;;9.52;5.30;;;12.50;99.90;;;;;;5033421;28;20025;-73
2021/12/03 19:04:39;;;;;;;7.68;3.03;;;12.50;99.90;;;;;;5033541;28;20026;-73
2021/12/03 19:09:38;;;;;;;5.25;2.10;;;12.60;99.90;;;;;;5033294;28;20026;-74
2021/12/03 19:14:34;;;;;;;5.43;1.85;;;12.60;99.90;;;;;;5033239;28;20460;-73
2021/12/03 19:17:00;;;;;;;7.88;4.63;;;12.60;99.90;;;;;;5015513;28;20030;-73
2021/12/03 19:19:28;;;;;;;11.77;5.43;;;12.60;99.90;;;;;;5032866;28;20103;-72
2021/12/03 19:21:57;;;;;;;8.07;2.38;;;12.60;99.90;;;;;;5033175;28;20032;-73
2021/12/03 19:24:25;;;;;;;4.90;2.20;;;12.60;99.90;;;;;;5033358;28;20025;-73
2021/12/03 19:26:51;;;;;;;8.30;3.35;;;12.60;99.90;;;;;;5033443;28;20204;-73
2021/12/03 19:29:19;;;;;;;10.80;5.60;;;12.60;99.90;;;;;;5033134;28;20554;-73
2021/12/03 19:31:48;;;;;;;6.18;2.10;;;12.60;99.90;;;;;;5036283;28;20017;-73
2021/12/03 19:34:14;;;;;;;6.38;3.10;;;12.50;99.90;;;;;;5037203;28;20034;-73
2021/12/03 19:36:43;;;;;;;6.38;2.15;;;12.50;99.90;;;;;;5037606;28;20022;-73
2021/12/03 19:39:10;;;;;;;7.88;2.10;;;12.50;99.90;;;;;;5019288;28;20029;-73
2021/12/03 19:44:29;;;;;;;7.90;1.85;;;12.50;99.90;;;;;;5036994;28;20136;-73
2021/12/03 19:46:54;;;;;;;4.75;1.92;;;12.50;99.90;;;;;;5037234;28;20531;-73
2021/12/03 19:49:48;;;;;;;6.85;1.63;;;12.60;99.90;;;;;;5037134;28;20112;-73
2021/12/03 19:52:25;;;;;;;6.05;1.70;;;12.50;99.90;;;;;;5036244;28;20078;-73
2021/12/03 19:54:55;;;;;;;8.80;3.83;;;12.50;99.90;;;;;;5037376;28;20377;-74
2021/12/03 19:57:22;;;;;;;6.13;2.00;;;12.50;99.90;;;;;;5036718;28;20026;-73
2021/12/03 19:59:48;;;;;;;6.28;1.63;;;12.50;99.90;;;;;;5036724;28;20097;-73
2021/12/03 20:02:14;;;;;;;10.48;1.92;;;12.50;99.90;;;;;;5036635;28;20029;-73
2021/12/03 20:04:41;;;;;;;5.60;1.58;;;12.50;99.90;;;;;;5036807;28;20113;-74
2021/12/03 20:07:07;;;;;;;4.45;1.58;;;12.50;99.90;;;;;;5036575;28;20021;-73
2021/12/03 20:09:43;;;;;;;5.40;1.40;;;12.50;99.90;;;;;;5036782;28;20156;-74
2021/12/03 20:12:14;;;;;;;6.50;2.03;;;12.50;99.90;;;;;;5018524;28;20068;-73
2021/12/03 20:14:42;;;;;;;4.10;1.80;;;12.50;99.90;;;;;;5036758;28;20029;-73
2021/12/03 20:17:30;;;;;;;9.95;4.40;;;12.50;99.90;;;;;;5036363;28;20022;-73
2021/12/03 20:19:58;;;;;;;5.90;2.95;;;12.50;99.90;;;;;;5053592;28;20056;-73
2021/12/03 20:22:51;;;;;;;15.20;7.93;;;12.50;99.90;;;;;;5056146;28;20477;-74
2021/12/03 20:27:41;;;;;;;7.00;2.83;;;12.50;99.90;;;;;;5056431;28;20075;-73
2021/12/03 20:30:17;;;;;;;9.18;3.40;;;12.50;99.90;;;;;;5056688;28;20428;-73
2021/12/03 20:33:01;;;;;;;16.75;8.38;;;12.50;99.90;;;;;;5056625;28;20021;-73
2021/12/03 20:36:22;;;;;;;7.63;3.10;;;12.50;99.90;;;;;;5056339;28;20028;-73
2021/12/03 20:38:20;;;;;;;8.35;3.03;;;12.50;99.90;;;;;;5050280;28;20040;-73
2021/12/03 20:40:52;;;;;;;4.05;1.50;;;12.60;99.90;;;;;;5054184;28;20033;-73
2021/12/03 20:43:33;;;;;;;1.63;1.27;;;12.60;99.90;;;;;;5055847;28;20366;-73
2021/12/03 20:51:31;;;;;;;3.00;1.20;;;12.60;99.90;;;;;;5055910;28;20496;-73
2021/12/03 21:08:34;;;;;;;2.53;1.00;;;12.80;99.90;;;;;;5055430;28;20508;-72
2021/12/03 21:10:49;;;;;;;2.05;0.90;;;12.80;99.90;;;;;;5051154;28;20029;-74